sensor_id;sensor_type;location;lat;lon;timestamp;temperature;humidity
32895;DHT22;19251;49.484;8.260;2023-06-10T00:02:40;21.10;14.30
32895;DHT22;19251;49.484;8.260;2023-06-10T00:07:42;21.00;14.50
32895;DHT22;19251;49.484;8.260;2023-06-10T00:12:44;20.90;14.70
32895;DHT22;19251;49.484;8.260;2023-06-10T00:17:47;20.80;14.90
32895;DHT22;19251;49.484;8.260;2023-06-10T00:22:49;20.80;15.30
32895;DHT22;19251;49.484;8.260;2023-06-10T00:27:51;20.70;15.30
32895;DHT22;19251;49.484;8.260;2023-06-10T00:32:53;20.70;15.70
32895;DHT22;19251;49.484;8.260;2023-06-10T00:37:56;20.60;15.90
32895;DHT22;19251;49.484;8.260;2023-06-10T00:42:58;20.60;16.00
32895;DHT22;19251;49.484;8.260;2023-06-10T00:48:00;20.60;16.20
32895;DHT22;19251;49.484;8.260;2023-06-10T00:53:02;20.60;16.30
32895;DHT22;19251;49.484;8.260;2023-06-10T00:58:04;20.50;16.30
32895;DHT22;19251;49.484;8.260;2023-06-10T01:03:07;20.50;16.50
32895;DHT22;19251;49.484;8.260;2023-06-10T01:08:20;20.40;16.70
32895;DHT22;19251;49.484;8.260;2023-06-10T01:13:27;20.30;16.80
32895;DHT22;19251;49.484;8.260;2023-06-10T01:18:32;20.30;17.00
32895;DHT22;19251;49.484;8.260;2023-06-10T01:23:34;20.30;17.20
32895;DHT22;19251;49.484;8.260;2023-06-10T01:33:46;20.20;17.50
32895;DHT22;19251;49.484;8.260;2023-06-10T01:38:50;20.10;17.40
32895;DHT22;19251;49.484;8.260;2023-06-10T01:43:54;20.10;17.50
32895;DHT22;19251;49.484;8.260;2023-06-10T01:48:56;20.00;17.70
32895;DHT22;19251;49.484;8.260;2023-06-10T01:53:58;20.00;17.80
32895;DHT22;19251;49.484;8.260;2023-06-10T01:59:01;19.90;17.80
32895;DHT22;19251;49.484;8.260;2023-06-10T02:04:03;19.80;18.00
32895;DHT22;19251;49.484;8.260;2023-06-10T02:14:09;19.70;18.20
32895;DHT22;19251;49.484;8.260;2023-06-10T02:19:11;19.60;18.30
32895;DHT22;19251;49.484;8.260;2023-06-10T02:24:14;19.50;18.40
32895;DHT22;19251;49.484;8.260;2023-06-10T02:29:16;19.50;18.40
32895;DHT22;19251;49.484;8.260;2023-06-10T02:34:19;19.40;18.60
32895;DHT22;19251;49.484;8.260;2023-06-10T02:39:22;19.30;18.60
32895;DHT22;19251;49.484;8.260;2023-06-10T02:44:24;19.30;18.80
32895;DHT22;19251;49.484;8.260;2023-06-10T02:49:27;19.30;18.90
32895;DHT22;19251;49.484;8.260;2023-06-10T02:54:33;19.20;18.90
32895;DHT22;19251;49.484;8.260;2023-06-10T02:59:35;19.20;19.10
32895;DHT22;19251;49.484;8.260;2023-06-10T03:04:38;19.10;19.10
32895;DHT22;19251;49.484;8.260;2023-06-10T03:09:41;19.10;19.20
32895;DHT22;19251;49.484;8.260;2023-06-10T03:14:47;19.00;19.30
32895;DHT22;19251;49.484;8.260;2023-06-10T03:19:50;19.00;19.50
32895;DHT22;19251;49.484;8.260;2023-06-10T03:29:55;18.90;19.80
32895;DHT22;19251;49.484;8.260;2023-06-10T03:34:57;18.80;19.90
32895;DHT22;19251;49.484;8.260;2023-06-10T03:40:01;18.80;20.00
32895;DHT22;19251;49.484;8.260;2023-06-10T03:45:05;18.80;20.00
32895;DHT22;19251;49.484;8.260;2023-06-10T03:50:09;18.70;19.90
32895;DHT22;19251;49.484;8.260;2023-06-10T03:55:12;18.70;19.90
32895;DHT22;19251;49.484;8.260;2023-06-10T04:00:16;18.70;19.90
32895;DHT22;19251;49.484;8.260;2023-06-10T04:05:19;18.70;19.90
32895;DHT22;19251;49.484;8.260;2023-06-10T04:10:23;18.70;19.90
32895;DHT22;19251;49.484;8.260;2023-06-10T04:15:26;18.70;20.00
32895;DHT22;19251;49.484;8.260;2023-06-10T04:20:28;18.70;20.00
32895;DHT22;19251;49.484;8.260;2023-06-10T04:25:31;18.70;20.40
32895;DHT22;19251;49.484;8.260;2023-06-10T04:30:34;18.80;20.60
32895;DHT22;19251;49.484;8.260;2023-06-10T04:35:36;18.80;20.90
32895;DHT22;19251;49.484;8.260;2023-06-10T04:40:40;18.90;20.90
32895;DHT22;19251;49.484;8.260;2023-06-10T04:45:42;18.90;21.10
32895;DHT22;19251;49.484;8.260;2023-06-10T04:50:48;19.00;21.30
32895;DHT22;19251;49.484;8.260;2023-06-10T04:55:50;19.20;21.50
32895;DHT22;19251;49.484;8.260;2023-06-10T05:00:52;19.30;21.60
32895;DHT22;19251;49.484;8.260;2023-06-10T05:05:54;19.40;21.70
32895;DHT22;19251;49.484;8.260;2023-06-10T05:10:56;19.60;21.80
32895;DHT22;19251;49.484;8.260;2023-06-10T05:15:58;19.90;21.80
32895;DHT22;19251;49.484;8.260;2023-06-10T05:21:01;20.20;21.70
32895;DHT22;19251;49.484;8.260;2023-06-10T05:26:03;20.50;21.30
32895;DHT22;19251;49.484;8.260;2023-06-10T05:31:05;20.70;21.40
32895;DHT22;19251;49.484;8.260;2023-06-10T05:36:07;21.00;21.40
32895;DHT22;19251;49.484;8.260;2023-06-10T05:41:09;21.30;21.10
32895;DHT22;19251;49.484;8.260;2023-06-10T05:46:11;21.50;20.70
32895;DHT22;19251;49.484;8.260;2023-06-10T05:56:16;22.00;20.30
32895;DHT22;19251;49.484;8.260;2023-06-10T06:01:18;22.30;20.20
32895;DHT22;19251;49.484;8.260;2023-06-10T06:06:20;22.50;19.80
32895;DHT22;19251;49.484;8.260;2023-06-10T06:16:26;23.00;19.30
32895;DHT22;19251;49.484;8.260;2023-06-10T06:21:28;23.30;19.20
32895;DHT22;19251;49.484;8.260;2023-06-10T06:26:30;23.60;18.80
32895;DHT22;19251;49.484;8.260;2023-06-10T06:31:32;23.80;18.50
32895;DHT22;19251;49.484;8.260;2023-06-10T06:36:34;24.10;18.20
32895;DHT22;19251;49.484;8.260;2023-06-10T06:41:36;24.40;17.90
32895;DHT22;19251;49.484;8.260;2023-06-10T06:46:38;24.70;17.20
32895;DHT22;19251;49.484;8.260;2023-06-10T06:51:40;25.00;16.90
32895;DHT22;19251;49.484;8.260;2023-06-10T06:56:42;25.30;16.40
32895;DHT22;19251;49.484;8.260;2023-06-10T07:01:45;25.60;16.20
32895;DHT22;19251;49.484;8.260;2023-06-10T07:06:48;25.90;15.50
32895;DHT22;19251;49.484;8.260;2023-06-10T07:11:50;26.10;14.90
32895;DHT22;19251;49.484;8.260;2023-06-10T07:16:52;26.30;14.60
32895;DHT22;19251;49.484;8.260;2023-06-10T07:21:54;26.60;14.30
32895;DHT22;19251;49.484;8.260;2023-06-10T07:26:56;26.80;13.80
32895;DHT22;19251;49.484;8.260;2023-06-10T07:31:58;27.00;13.20
32895;DHT22;19251;49.484;8.260;2023-06-10T07:37:00;27.20;13.30
32895;DHT22;19251;49.484;8.260;2023-06-10T07:42:03;27.50;13.40
32895;DHT22;19251;49.484;8.260;2023-06-10T07:47:05;27.70;12.90
32895;DHT22;19251;49.484;8.260;2023-06-10T07:52:07;27.90;12.30
32895;DHT22;19251;49.484;8.260;2023-06-10T07:57:09;28.00;12.00
32895;DHT22;19251;49.484;8.260;2023-06-10T08:02:11;28.20;11.40
32895;DHT22;19251;49.484;8.260;2023-06-10T08:07:13;28.40;10.70
32895;DHT22;19251;49.484;8.260;2023-06-10T08:12:15;28.60;10.50
32895;DHT22;19251;49.484;8.260;2023-06-10T08:17:18;28.70;9.40
32895;DHT22;19251;49.484;8.260;2023-06-10T08:22:20;28.70;9.10
32895;DHT22;19251;49.484;8.260;2023-06-10T08:27:23;29.00;8.60
32895;DHT22;19251;49.484;8.260;2023-06-10T08:32:25;29.10;8.40
32895;DHT22;19251;49.484;8.260;2023-06-10T08:37:27;29.20;7.90
32895;DHT22;19251;49.484;8.260;2023-06-10T08:48:02;29.60;7.30
32895;DHT22;19251;49.484;8.260;2023-06-10T08:53:06;29.70;6.60
32895;DHT22;19251;49.484;8.260;2023-06-10T08:58:09;29.80;6.60
32895;DHT22;19251;49.484;8.260;2023-06-10T09:03:12;30.00;6.10
32895;DHT22;19251;49.484;8.260;2023-06-10T09:08:15;30.10;6.00
32895;DHT22;19251;49.484;8.260;2023-06-10T09:13:18;30.20;5.40
32895;DHT22;19251;49.484;8.260;2023-06-10T09:18:21;30.30;5.20
32895;DHT22;19251;49.484;8.260;2023-06-10T09:23:23;30.40;4.50
32895;DHT22;19251;49.484;8.260;2023-06-10T09:28:25;30.40;4.40
32895;DHT22;19251;49.484;8.260;2023-06-10T09:33:27;30.60;4.50
32895;DHT22;19251;49.484;8.260;2023-06-10T09:38:30;30.80;4.40
32895;DHT22;19251;49.484;8.260;2023-06-10T09:43:40;30.90;4.20
32895;DHT22;19251;49.484;8.260;2023-06-10T09:48:43;31.10;3.90
32895;DHT22;19251;49.484;8.260;2023-06-10T09:53:50;31.20;3.20
32895;DHT22;19251;49.484;8.260;2023-06-10T09:58:53;31.40;3.40
32895;DHT22;19251;49.484;8.260;2023-06-10T10:03:55;31.50;3.30
32895;DHT22;19251;49.484;8.260;2023-06-10T10:08:57;31.70;2.90
32895;DHT22;19251;49.484;8.260;2023-06-10T10:13:59;31.80;2.70
32895;DHT22;19251;49.484;8.260;2023-06-10T10:19:04;31.90;2.80
32895;DHT22;19251;49.484;8.260;2023-06-10T10:24:10;32.10;2.80
32895;DHT22;19251;49.484;8.260;2023-06-10T10:29:20;32.20;2.30
32895;DHT22;19251;49.484;8.260;2023-06-10T10:34:30;32.40;2.00
32895;DHT22;19251;49.484;8.260;2023-06-10T10:39:34;32.60;1.10
32895;DHT22;19251;49.484;8.260;2023-06-10T10:44:37;32.70;1.00
32895;DHT22;19251;49.484;8.260;2023-06-10T10:49:41;32.90;1.00
32895;DHT22;19251;49.484;8.260;2023-06-10T10:54:45;33.10;1.00
32895;DHT22;19251;49.484;8.260;2023-06-10T11:04:50;33.40;1.00
32895;DHT22;19251;49.484;8.260;2023-06-10T11:10:09;33.60;1.00
32895;DHT22;19251;49.484;8.260;2023-06-10T11:15:12;33.80;1.00
32895;DHT22;19251;49.484;8.260;2023-06-10T11:20:34;34.00;1.00
32895;DHT22;19251;49.484;8.260;2023-06-10T11:25:39;34.10;1.00
32895;DHT22;19251;49.484;8.260;2023-06-10T11:35:44;34.10;1.00
32895;DHT22;19251;49.484;8.260;2023-06-10T11:40:48;34.10;1.00
32895;DHT22;19251;49.484;8.260;2023-06-10T11:45:53;34.00;1.00
32895;DHT22;19251;49.484;8.260;2023-06-10T11:50:56;34.00;1.00
32895;DHT22;19251;49.484;8.260;2023-06-10T11:55:58;34.00;1.00
32895;DHT22;19251;49.484;8.260;2023-06-10T12:01:00;34.30;1.00
32895;DHT22;19251;49.484;8.260;2023-06-10T12:06:04;34.60;1.00
32895;DHT22;19251;49.484;8.260;2023-06-10T12:11:06;34.90;1.00
32895;DHT22;19251;49.484;8.260;2023-06-10T12:16:09;35.10;1.00
32895;DHT22;19251;49.484;8.260;2023-06-10T12:21:18;35.40;1.00
32895;DHT22;19251;49.484;8.260;2023-06-10T12:26:20;35.80;1.00
32895;DHT22;19251;49.484;8.260;2023-06-10T12:31:51;36.10;1.00
32895;DHT22;19251;49.484;8.260;2023-06-10T12:36:53;36.10;1.00
32895;DHT22;19251;49.484;8.260;2023-06-10T12:41:56;36.00;1.00
32895;DHT22;19251;49.484;8.260;2023-06-10T12:46:58;36.00;1.00
32895;DHT22;19251;49.484;8.260;2023-06-10T12:52:00;36.20;1.00
32895;DHT22;19251;49.484;8.260;2023-06-10T12:57:02;36.60;1.00
32895;DHT22;19251;49.484;8.260;2023-06-10T13:02:04;36.80;1.00
32895;DHT22;19251;49.484;8.260;2023-06-10T13:07:06;37.40;1.00
32895;DHT22;19251;49.484;8.260;2023-06-10T13:12:10;37.80;1.00
32895;DHT22;19251;49.484;8.260;2023-06-10T13:17:17;38.40;1.00
32895;DHT22;19251;49.484;8.260;2023-06-10T13:22:20;38.90;1.00
32895;DHT22;19251;49.484;8.260;2023-06-10T13:27:23;39.20;1.00
32895;DHT22;19251;49.484;8.260;2023-06-10T13:32:25;39.70;1.00
32895;DHT22;19251;49.484;8.260;2023-06-10T13:37:27;40.10;1.00
32895;DHT22;19251;49.484;8.260;2023-06-10T13:42:30;40.40;1.00
32895;DHT22;19251;49.484;8.260;2023-06-10T13:47:32;40.70;1.00
32895;DHT22;19251;49.484;8.260;2023-06-10T13:52:34;40.90;1.00
32895;DHT22;19251;49.484;8.260;2023-06-10T13:57:36;40.70;1.00
32895;DHT22;19251;49.484;8.260;2023-06-10T14:02:38;40.20;1.00
32895;DHT22;19251;49.484;8.260;2023-06-10T14:07:41;39.90;1.00
32895;DHT22;19251;49.484;8.260;2023-06-10T14:12:43;39.90;1.00
32895;DHT22;19251;49.484;8.260;2023-06-10T14:17:45;39.60;1.00
32895;DHT22;19251;49.484;8.260;2023-06-10T14:22:47;39.10;1.00
32895;DHT22;19251;49.484;8.260;2023-06-10T14:27:49;38.70;1.00
32895;DHT22;19251;49.484;8.260;2023-06-10T14:32:51;38.50;1.00
32895;DHT22;19251;49.484;8.260;2023-06-10T14:37:54;37.90;1.00
32895;DHT22;19251;49.484;8.260;2023-06-10T14:42:56;37.50;1.00
32895;DHT22;19251;49.484;8.260;2023-06-10T14:47:58;37.70;1.00
32895;DHT22;19251;49.484;8.260;2023-06-10T14:53:00;38.40;1.00
32895;DHT22;19251;49.484;8.260;2023-06-10T15:03:05;40.50;1.00
32895;DHT22;19251;49.484;8.260;2023-06-10T15:08:07;41.20;1.00
32895;DHT22;19251;49.484;8.260;2023-06-10T15:13:09;42.10;1.00
32895;DHT22;19251;49.484;8.260;2023-06-10T15:18:11;42.80;1.00
32895;DHT22;19251;49.484;8.260;2023-06-10T15:23:13;43.60;1.00
32895;DHT22;19251;49.484;8.260;2023-06-10T15:28:16;43.50;1.00
32895;DHT22;19251;49.484;8.260;2023-06-10T15:33:18;43.00;1.00
32895;DHT22;19251;49.484;8.260;2023-06-10T15:38:20;42.20;1.00
32895;DHT22;19251;49.484;8.260;2023-06-10T15:43:22;41.40;1.00
32895;DHT22;19251;49.484;8.260;2023-06-10T15:48:24;40.70;1.00
32895;DHT22;19251;49.484;8.260;2023-06-10T15:53:26;40.00;1.00
32895;DHT22;19251;49.484;8.260;2023-06-10T15:58:28;39.20;1.00
32895;DHT22;19251;49.484;8.260;2023-06-10T16:03:30;39.20;1.00
32895;DHT22;19251;49.484;8.260;2023-06-10T16:08:33;40.10;1.00
32895;DHT22;19251;49.484;8.260;2023-06-10T16:13:35;41.00;1.00
32895;DHT22;19251;49.484;8.260;2023-06-10T16:18:41;42.60;1.00
32895;DHT22;19251;49.484;8.260;2023-06-10T16:23:43;43.40;1.00
32895;DHT22;19251;49.484;8.260;2023-06-10T16:28:46;43.30;1.00
32895;DHT22;19251;49.484;8.260;2023-06-10T16:33:48;43.20;1.00
32895;DHT22;19251;49.484;8.260;2023-06-10T16:38:50;43.40;1.00
32895;DHT22;19251;49.484;8.260;2023-06-10T16:43:52;43.70;1.00
32895;DHT22;19251;49.484;8.260;2023-06-10T16:48:54;44.30;1.00
32895;DHT22;19251;49.484;8.260;2023-06-10T16:53:56;44.80;1.00
32895;DHT22;19251;49.484;8.260;2023-06-10T16:58:58;45.20;1.00
32895;DHT22;19251;49.484;8.260;2023-06-10T17:04:00;45.50;1.00
32895;DHT22;19251;49.484;8.260;2023-06-10T17:09:03;45.60;1.00
32895;DHT22;19251;49.484;8.260;2023-06-10T17:14:05;45.60;1.00
32895;DHT22;19251;49.484;8.260;2023-06-10T17:19:07;45.30;1.00
32895;DHT22;19251;49.484;8.260;2023-06-10T17:24:09;44.30;1.00
32895;DHT22;19251;49.484;8.260;2023-06-10T17:29:12;43.00;1.00
32895;DHT22;19251;49.484;8.260;2023-06-10T17:34:14;41.60;1.00
32895;DHT22;19251;49.484;8.260;2023-06-10T17:39:16;40.40;1.00
32895;DHT22;19251;49.484;8.260;2023-06-10T17:44:20;39.40;1.00
32895;DHT22;19251;49.484;8.260;2023-06-10T17:49:28;38.60;1.00
32895;DHT22;19251;49.484;8.260;2023-06-10T17:54:35;38.20;1.00
32895;DHT22;19251;49.484;8.260;2023-06-10T17:59:37;38.30;1.00
32895;DHT22;19251;49.484;8.260;2023-06-10T18:04:39;38.80;1.00
32895;DHT22;19251;49.484;8.260;2023-06-10T18:09:41;39.30;1.00
32895;DHT22;19251;49.484;8.260;2023-06-10T18:14:43;39.40;1.00
32895;DHT22;19251;49.484;8.260;2023-06-10T18:19:45;38.90;1.00
32895;DHT22;19251;49.484;8.260;2023-06-10T18:24:48;38.20;1.00
32895;DHT22;19251;49.484;8.260;2023-06-10T18:29:50;37.40;1.00
32895;DHT22;19251;49.484;8.260;2023-06-10T18:34:52;36.70;1.00
32895;DHT22;19251;49.484;8.260;2023-06-10T18:39:54;36.10;1.00
32895;DHT22;19251;49.484;8.260;2023-06-10T18:44:57;35.50;1.00
32895;DHT22;19251;49.484;8.260;2023-06-10T18:49:59;34.90;1.00
32895;DHT22;19251;49.484;8.260;2023-06-10T18:55:01;34.40;1.00
32895;DHT22;19251;49.484;8.260;2023-06-10T19:00:03;33.90;1.00
32895;DHT22;19251;49.484;8.260;2023-06-10T19:05:05;33.40;1.00
32895;DHT22;19251;49.484;8.260;2023-06-10T19:10:10;33.20;1.00
32895;DHT22;19251;49.484;8.260;2023-06-10T19:15:13;32.90;1.00
32895;DHT22;19251;49.484;8.260;2023-06-10T19:20:15;32.60;1.00
32895;DHT22;19251;49.484;8.260;2023-06-10T19:25:17;32.30;1.00
32895;DHT22;19251;49.484;8.260;2023-06-10T19:30:23;32.10;1.00
32895;DHT22;19251;49.484;8.260;2023-06-10T19:35:25;31.80;1.00
32895;DHT22;19251;49.484;8.260;2023-06-10T19:40:27;31.60;1.00
32895;DHT22;19251;49.484;8.260;2023-06-10T19:45:29;31.40;1.00
32895;DHT22;19251;49.484;8.260;2023-06-10T19:50:31;31.20;1.00
32895;DHT22;19251;49.484;8.260;2023-06-10T19:55:33;30.90;1.00
32895;DHT22;19251;49.484;8.260;2023-06-10T20:00:39;30.70;1.00
32895;DHT22;19251;49.484;8.260;2023-06-10T20:05:41;30.50;1.00
32895;DHT22;19251;49.484;8.260;2023-06-10T20:10:43;29.90;1.00
32895;DHT22;19251;49.484;8.260;2023-06-10T20:15:47;30.00;1.00
32895;DHT22;19251;49.484;8.260;2023-06-10T20:20:49;29.80;1.50
32895;DHT22;19251;49.484;8.260;2023-06-10T20:25:51;29.60;1.40
32895;DHT22;19251;49.484;8.260;2023-06-10T20:30:53;29.40;1.70
32895;DHT22;19251;49.484;8.260;2023-06-10T20:35:55;29.10;2.30
32895;DHT22;19251;49.484;8.260;2023-06-10T20:40:58;29.00;2.70
32895;DHT22;19251;49.484;8.260;2023-06-10T20:46:00;28.80;3.30
32895;DHT22;19251;49.484;8.260;2023-06-10T20:51:03;28.50;3.50
32895;DHT22;19251;49.484;8.260;2023-06-10T20:56:05;28.40;3.90
32895;DHT22;19251;49.484;8.260;2023-06-10T21:01:07;28.30;4.30
32895;DHT22;19251;49.484;8.260;2023-06-10T21:06:12;28.20;4.70
32895;DHT22;19251;49.484;8.260;2023-06-10T21:11:14;28.10;5.20
32895;DHT22;19251;49.484;8.260;2023-06-10T21:21:19;27.70;6.00
32895;DHT22;19251;49.484;8.260;2023-06-10T21:26:21;27.60;6.40
32895;DHT22;19251;49.484;8.260;2023-06-10T21:36:26;27.20;6.90
32895;DHT22;19251;49.484;8.260;2023-06-10T21:41:28;27.00;7.10
32895;DHT22;19251;49.484;8.260;2023-06-10T21:46:31;26.80;7.40
32895;DHT22;19251;49.484;8.260;2023-06-10T21:51:34;26.60;7.70
32895;DHT22;19251;49.484;8.260;2023-06-10T21:56:36;26.40;8.10
32895;DHT22;19251;49.484;8.260;2023-06-10T22:01:38;26.20;8.30
32895;DHT22;19251;49.484;8.260;2023-06-10T22:06:41;26.10;8.90
32895;DHT22;19251;49.484;8.260;2023-06-10T22:16:45;25.80;9.70
32895;DHT22;19251;49.484;8.260;2023-06-10T22:21:48;25.60;9.70
32895;DHT22;19251;49.484;8.260;2023-06-10T22:26:50;25.50;10.20
32895;DHT22;19251;49.484;8.260;2023-06-10T22:31:55;25.30;10.50
32895;DHT22;19251;49.484;8.260;2023-06-10T22:36:57;25.20;10.80
32895;DHT22;19251;49.484;8.260;2023-06-10T22:41:59;25.00;11.30
32895;DHT22;19251;49.484;8.260;2023-06-10T22:47:01;24.90;11.90
32895;DHT22;19251;49.484;8.260;2023-06-10T22:52:03;24.80;11.80
32895;DHT22;19251;49.484;8.260;2023-06-10T22:57:06;24.60;11.70
32895;DHT22;19251;49.484;8.260;2023-06-10T23:02:08;24.40;12.20
32895;DHT22;19251;49.484;8.260;2023-06-10T23:07:11;24.30;12.40
32895;DHT22;19251;49.484;8.260;2023-06-10T23:12:15;24.20;13.00
32895;DHT22;19251;49.484;8.260;2023-06-10T23:17:18;24.10;13.10
32895;DHT22;19251;49.484;8.260;2023-06-10T23:22:20;23.90;13.40
32895;DHT22;19251;49.484;8.260;2023-06-10T23:27:22;23.80;13.70
32895;DHT22;19251;49.484;8.260;2023-06-10T23:32:24;23.80;14.10
32895;DHT22;19251;49.484;8.260;2023-06-10T23:37:26;23.60;14.20
32895;DHT22;19251;49.484;8.260;2023-06-10T23:42:30;23.50;14.40
32895;DHT22;19251;49.484;8.260;2023-06-10T23:47:32;23.40;14.70
32895;DHT22;19251;49.484;8.260;2023-06-10T23:52:34;23.40;14.90
32895;DHT22;19251;49.484;8.260;2023-06-10T23:57:36;23.20;15.10
